Main page
METAR-TAF:

METAR-TAF

Airports :

El Loa Airport

Calama, Chile

latitude: 22-29-59S, longitude: 068-54-29W, elevation: 2299 m

Current weather observation

The report was made 22 minutes ago, at 04:00 UTC
Wind 16 kt from the East
Temperature 3°C
Humidity 38%
Pressure 1028 hPa
Visibility 10 km or more
no clouds below 1500 m and no cumulonimbus

METAR: SCCF 210400Z 10016KT CAVOK 03/M10 Q1028

Time: 00:22 (04:22 UTC)

Forecast

The report was made 6 hours and 22 minutes ago, at 22:00 UTC
Forecast valid from 21 at 00 UTC to 21 at 24 UTC
Wind 10 kt from the West
Visibility 10 km or more
no clouds below 1500 m and no cumulonimbus
Becoming
from 21 at 03 UTC to 21 at 05 UTC
Wind 15 kt from the East/Southeast
Becoming
from 21 at 17 UTC to 21 at 19 UTC
Wind 18 kt from the West/Northwest
Becoming
from 21 at 22 UTC to 21 at 24 UTC
Wind 8 kt from the West/Northwest

TAF: SCCF 202200Z 2100/2124 28010KT CAVOK TN04/2106Z TX22/2118Z BECMG 2103/2105 11015KT BECMG 2117/2119 29018KT BECMG 2122/2124 30008KT

Weather observations and forecasts of more than 4000 airports (METAR and TAF reports).

The available stations are represented by yellow and red dots on the map.

Hover mouse over dot to see the name of the station.

Then click to see weather observations and forecasts.

To change the map : click on the green buttons with a black cross to zoom in, on the green button with a dash to zoom out, or on the green arrows for adjacent maps.


METAR-TAF: